Carbon, Iowa
Current Conditions -  °F | °C
As of 8:55 AM on Thursday 23 Oct 2014 (Local Time) from KRDK Reporting Station
Haze Haze  
Wind Chill: 61°   Ceiling: 600
Heat Index: 61°   Visibility: 5mi
Dew Point: 61°   Wind: 10mph
Humidity: 100%   Direction: 250°WSW
Pressure: 30.05"   Gusts: NA
Location:  41.05°N, 94.82°W
Report Text: KRDK 231355Z AUTO 25009KT 5SM BR OVC006 16/16 A3005 RMK AO2
Loading
Personal Weather Stations






























Interactive Weather Map
Tropical Storm Tracking
New forecast layout! Learn more

10-Day Weather Forecast

Advertisements
Track Severe Weather on mobile